Time;durP1;ratioP1;P1;durP2;ratioP2;P2;SDS_P1;SDS_P2;PMS_P1;PMS_P2;Temp;Humidity;BMP_temperature;BMP_pressure;BME280_temperature;BME280_humidity;BME280_pressure;Samples;Min_cycle;Max_cycle;Signal;HPM_P1;HPM_P2
2023/05/09 00:02:22;;;;;;;0.00;0.00;;;;;;;11.04;80.37;100827.22;5010809;28;20209;-77
2023/05/09 00:04:47;;;;;;;0.00;0.00;;;;;;;11.03;80.49;100831.06;5010656;28;20702;-76
2023/05/09 00:07:13;;;;;;;0.00;0.00;;;;;;;10.94;80.54;100825.47;5011035;28;20185;-77
2023/05/09 00:09:38;;;;;;;0.00;0.00;;;;;;;10.91;80.67;100834.31;5011773;28;20546;-77
2023/05/09 00:12:04;;;;;;;0.00;0.00;;;;;;;10.87;81.75;100827.84;5004365;28;20667;-76
2023/05/09 00:14:29;;;;;;;0.00;0.00;;;;;;;10.85;81.70;100832.78;5001313;28;20267;-77
2023/05/09 00:16:56;;;;;;;0.00;0.00;;;;;;;10.84;81.92;100831.16;5009186;28;20227;-77
2023/05/09 00:19:21;;;;;;;1.00;0.97;;;;;;;10.61;82.12;100824.78;5010887;28;20634;-77
2023/05/09 00:21:46;;;;;;;0.00;0.00;;;;;;;10.43;82.79;100823.75;5010929;28;20196;-77
2023/05/09 00:24:11;;;;;;;0.00;0.00;;;;;;;10.47;82.77;100828.59;5010864;28;20552;-77
2023/05/09 00:26:37;;;;;;;0.00;0.00;;;;;;;10.33;83.62;100820.38;5010483;28;20185;-77
2023/05/09 00:29:02;;;;;;;0.00;0.00;;;;;;;10.05;84.50;100825.72;5010866;28;20180;-76
2023/05/09 00:31:28;;;;;;;0.00;0.00;;;;;;;9.79;85.85;100827.25;5010480;28;20230;-77
2023/05/09 00:33:53;;;;;;;0.27;0.27;;;;;;;9.70;87.03;100823.56;5010921;28;20212;-77
2023/05/09 00:36:18;;;;;;;0.00;0.00;;;;;;;9.84;87.53;100822.53;5008888;28;20651;-77
2023/05/09 00:38:44;;;;;;;0.00;0.00;;;;;;;9.96;87.19;100819.31;5010947;28;20235;-77
2023/05/09 00:41:09;;;;;;;0.00;0.00;;;;;;;9.95;87.40;100808.69;5010555;28;20808;-76
2023/05/09 00:43:34;;;;;;;0.00;0.00;;;;;;;9.98;87.53;100800.75;5009629;28;20200;-77
2023/05/09 00:46:00;;;;;;;0.00;0.00;;;;;;;9.95;87.35;100804.06;5010178;28;20181;-77
2023/05/09 00:48:25;;;;;;;0.00;0.00;;;;;;;9.53;88.76;100805.78;5012271;28;20184;-77
2023/05/09 00:50:51;;;;;;;0.00;0.00;;;;;;;9.68;89.35;100795.75;5014296;28;20180;-77
2023/05/09 00:53:19;;;;;;;0.00;0.00;;;;;;;9.82;89.03;100791.97;5014358;28;20184;-76
2023/05/09 00:55:45;;;;;;;9.53;1.40;;;;;;;9.79;88.87;100794.50;5013573;28;20208;-77
2023/05/09 00:58:11;;;;;;;14.93;6.53;;;;;;;9.90;88.39;100792.41;5014234;28;20195;-76
2023/05/09 01:00:36;;;;;;;0.00;0.00;;;;;;;9.92;87.46;100788.28;5014038;28;20271;-76
2023/05/09 01:03:02;;;;;;;0.00;0.00;;;;;;;9.91;87.82;100786.66;5012771;28;20208;-76
2023/05/09 01:06:04;;;;;;;0.10;0.10;;;;;;;9.89;87.73;100786.16;5013517;28;20242;-76
2023/05/09 01:08:55;;;;;;;0.00;0.00;;;;;;;9.74;88.29;100784.47;5014502;28;20184;-76
2023/05/09 01:11:44;;;;;;;0.00;0.00;;;;;;;9.72;88.89;100780.44;5013498;28;20215;-76
2023/05/09 01:14:40;;;;;;;0.00;0.00;;;;;;;9.46;90.01;100782.75;5013815;28;20713;-76
2023/05/09 01:17:36;;;;;;;0.00;0.00;;;;;;;9.31;91.16;100772.88;5012031;28;20204;-76
2023/05/09 01:20:15;;;;;;;0.00;0.00;;;;;;;9.13;91.70;100770.94;5013932;28;20220;-76
2023/05/09 01:22:47;;;;;;;0.00;0.00;;;;;;;9.23;92.42;100768.88;5013821;28;20694;-76
2023/05/09 01:25:36;;;;;;;0.00;0.00;;;;;;;9.27;92.11;100766.38;5013251;28;20271;-76
2023/05/09 01:28:17;;;;;;;0.00;0.00;;;;;;;8.68;93.72;100764.13;5012557;28;20188;-76
2023/05/09 01:30:45;;;;;;;0.00;0.00;;;;;;;8.75;95.19;100751.81;5013546;28;20287;-77
2023/05/09 01:33:15;;;;;;;0.00;0.00;;;;;;;8.78;95.04;100753.13;5013605;28;20188;-77
2023/05/09 01:35:44;;;;;;;0.00;0.00;;;;;;;8.95;95.25;100746.09;5012953;28;20271;-77
2023/05/09 01:38:12;;;;;;;0.00;0.00;;;;;;;8.92;95.55;100743.94;5013671;28;20180;-77
2023/05/09 01:40:39;;;;;;;0.57;0.57;;;;;;;8.96;95.49;100741.44;5013621;28;20184;-76
2023/05/09 01:43:08;;;;;;;0.00;0.00;;;;;;;9.10;95.65;100744.25;5013588;28;20184;-76
2023/05/09 01:45:37;;;;;;;0.00;0.00;;;;;;;9.22;95.04;100741.91;5018367;28;20202;-77
2023/05/09 01:48:04;;;;;;;0.00;0.00;;;;;;;9.04;94.82;100740.00;5018865;28;20180;-77
2023/05/09 01:50:30;;;;;;;0.07;0.07;;;;;;;8.90;95.67;100732.53;5013007;28;20185;-76
2023/05/09 01:53:00;;;;;;;0.00;0.00;;;;;;;8.91;95.33;100736.88;5013082;28;20678;-77
2023/05/09 01:55:30;;;;;;;0.00;0.00;;;;;;;8.85;95.51;100731.81;5012381;28;20187;-77
2023/05/09 01:57:57;;;;;;;0.00;0.00;;;;;;;8.90;95.80;100745.34;5013229;28;20216;-76
2023/05/09 02:00:24;;;;;;;0.00;0.00;;;;;;;8.93;96.15;100728.41;5012942;28;20206;-76
2023/05/09 02:02:50;;;;;;;0.00;0.00;;;;;;;8.85;95.72;100732.63;5006929;28;20205;-76
2023/05/09 02:05:17;;;;;;;0.00;0.00;;;;;;;8.65;95.81;100733.66;5012178;28;20255;-77
2023/05/09 02:07:43;;;;;;;0.10;0.10;;;;;;;8.75;96.33;100729.19;5012596;28;20173;-77
2023/05/09 02:10:09;;;;;;;0.00;0.00;;;;;;;8.71;95.75;100722.72;5012745;28;20276;-77
2023/05/09 02:12:35;;;;;;;0.00;0.00;;;;;;;8.65;96.28;100730.13;5011183;28;20557;-77
2023/05/09 02:15:00;;;;;;;0.00;0.00;;;;;;;8.60;96.45;100722.03;5012395;28;20194;-76
2023/05/09 02:17:29;;;;;;;0.00;0.00;;;;;;;8.65;96.59;100725.50;5027697;28;20235;-76
2023/05/09 02:19:55;;;;;;;0.00;0.00;;;;;;;8.81;96.19;100722.56;5012649;28;20180;-76
2023/05/09 02:22:20;;;;;;;0.00;0.00;;;;;;;8.60;95.83;100713.88;5027542;28;20306;-77
2023/05/09 02:24:45;;;;;;;0.00;0.00;;;;;;;8.49;96.64;100713.16;5012398;28;20180;-77
2023/05/09 02:27:12;;;;;;;0.03;0.03;;;;;;;8.52;97.25;100709.06;5011949;28;20180;-77
2023/05/09 02:29:42;;;;;;;0.50;0.33;;;;;;;8.58;96.93;100711.44;5027408;28;20188;-76
2023/05/09 02:32:12;;;;;;;0.00;0.00;;;;;;;8.61;96.50;100712.75;5012001;28;20272;-76
2023/05/09 02:34:38;;;;;;;0.00;0.00;;;;;;;8.70;95.69;100718.38;5012277;28;20550;-76
2023/05/09 02:37:05;;;;;;;0.00;0.00;;;;;;;8.70;95.78;100721.91;5013003;28;20204;-76
2023/05/09 02:39:30;;;;;;;0.30;0.30;;;;;;;8.75;95.47;100721.84;5012119;28;20207;-77
2023/05/09 02:41:56;;;;;;;0.00;0.00;;;;;;;8.65;96.21;100713.78;5012091;28;20196;-77
2023/05/09 02:44:21;;;;;;;0.00;0.00;;;;;;;8.51;96.42;100710.16;5011950;28;20184;-77
2023/05/09 02:46:46;;;;;;;0.00;0.00;;;;;;;8.62;96.26;100719.81;5011625;28;20684;-76
2023/05/09 02:49:12;;;;;;;0.00;0.00;;;;;;;8.66;96.66;100715.41;5011735;28;20690;-77
2023/05/09 02:51:37;;;;;;;0.00;0.00;;;;;;;8.53;96.77;100708.75;5010573;28;20218;-77
2023/05/09 02:54:03;;;;;;;0.00;0.00;;;;;;;8.32;97.84;100707.34;5011899;28;20178;-77
2023/05/09 02:56:28;;;;;;;0.00;0.00;;;;;;;8.20;98.65;100718.63;5011361;28;20226;-76
2023/05/09 02:58:54;;;;;;;0.00;0.00;;;;;;;8.22;99.38;100713.72;5011928;28;20180;-77
2023/05/09 03:01:19;;;;;;;0.00;0.00;;;;;;;8.38;99.21;100711.66;5010251;28;20540;-77
2023/05/09 03:03:45;;;;;;;0.00;0.00;;;;;;;8.31;99.43;100708.47;5011792;28;20246;-77
2023/05/09 03:06:10;;;;;;;0.00;0.00;;;;;;;8.27;98.99;100702.78;5011303;28;20231;-77
2023/05/09 03:08:36;;;;;;;0.00;0.00;;;;;;;8.24;99.87;100700.63;5011646;28;20180;-76
2023/05/09 03:11:01;;;;;;;0.00;0.00;;;;;;;8.22;99.19;100702.84;4996745;28;20197;-76
2023/05/09 03:13:26;;;;;;;0.73;0.50;;;;;;;8.28;99.58;100698.97;5009646;28;20184;-76
2023/05/09 03:15:51;;;;;;;0.00;0.00;;;;;;;8.22;99.02;100694.66;5010954;28;20192;-76
2023/05/09 03:18:17;;;;;;;0.00;0.00;;;;;;;8.30;99.26;100696.75;5011114;28;20184;-76
2023/05/09 03:20:43;;;;;;;7.60;7.30;;;;;;;8.28;98.45;100693.53;5011428;28;20177;-76
2023/05/09 03:23:09;;;;;;;0.00;0.00;;;;;;;8.12;98.97;100692.06;5011305;28;20180;-77
2023/05/09 03:25:34;;;;;;;0.00;0.00;;;;;;;8.05;100.00;100681.53;5009744;28;20185;-77
2023/05/09 03:27:59;;;;;;;0.20;0.20;;;;;;;7.99;100.00;100684.59;5026758;28;20609;-76
2023/05/09 03:30:26;;;;;;;0.00;0.00;;;;;;;8.09;100.00;100689.09;5012319;28;20180;-76
2023/05/09 03:32:51;;;;;;;0.00;0.00;;;;;;;7.94;100.00;100692.78;5011659;28;20243;-77
2023/05/09 03:35:16;;;;;;;0.00;0.00;;;;;;;8.07;100.00;100684.75;5012594;28;20188;-76
2023/05/09 03:37:42;;;;;;;0.00;0.00;;;;;;;8.19;100.00;100683.56;5012568;28;20201;-77
2023/05/09 03:40:07;;;;;;;0.67;0.67;;;;;;;8.26;100.00;100692.19;5005958;28;20192;-77
2023/05/09 03:42:33;;;;;;;0.47;0.47;;;;;;;8.30;100.00;100690.50;5008588;28;20235;-77
2023/05/09 03:44:58;;;;;;;0.00;0.00;;;;;;;8.15;100.00;100686.06;5010679;28;20181;-77
2023/05/09 03:47:23;;;;;;;0.00;0.00;;;;;;;8.11;100.00;100679.56;5011055;28;20181;-77
2023/05/09 03:49:49;;;;;;;0.27;0.27;;;;;;;8.14;100.00;100681.72;5011076;28;20180;-77
2023/05/09 03:52:14;;;;;;;0.07;0.07;;;;;;;8.09;100.00;100672.78;5010899;28;20231;-76
2023/05/09 03:54:39;;;;;;;0.73;0.57;;;;;;;8.09;100.00;100670.84;5011195;28;20259;-76
2023/05/09 03:57:05;;;;;;;0.30;0.30;;;;;;;8.01;100.00;100672.31;5010514;28;20208;-76
2023/05/09 03:59:31;;;;;;;0.00;0.00;;;;;;;7.94;100.00;100671.03;5010951;28;20180;-76
2023/05/09 04:01:56;;;;;;;0.00;0.00;;;;;;;7.92;100.00;100673.22;5010871;28;20274;-76
2023/05/09 04:04:22;;;;;;;0.00;0.00;;;;;;;7.84;100.00;100671.97;5010943;28;20181;-76
2023/05/09 04:06:47;;;;;;;0.00;0.00;;;;;;;7.85;100.00;100670.84;5009215;28;20230;-76
2023/05/09 04:09:13;;;;;;;0.43;0.43;;;;;;;7.76;100.00;100667.94;5010753;28;20184;-76
2023/05/09 04:11:39;;;;;;;0.00;0.00;;;;;;;7.83;100.00;100666.81;5010738;28;20231;-77
2023/05/09 04:14:05;;;;;;;0.43;0.43;;;;;;;7.90;100.00;100659.91;5009483;28;20188;-76
2023/05/09 04:16:31;;;;;;;0.00;0.00;;;;;;;7.94;100.00;100655.50;5010226;28;20204;-76
2023/05/09 04:18:57;;;;;;;0.00;0.00;;;;;;;7.87;100.00;100646.91;5005375;28;20189;-76
2023/05/09 04:21:22;;;;;;;0.00;0.00;;;;;;;7.83;100.00;100642.34;5008054;28;20690;-76
2023/05/09 04:23:47;;;;;;;0.00;0.00;;;;;;;7.87;100.00;100643.38;5011909;28;20678;-76
2023/05/09 04:26:14;;;;;;;0.07;0.07;;;;;;;7.88;100.00;100643.06;5012963;28;20183;-76
2023/05/09 04:28:39;;;;;;;0.07;0.07;;;;;;;7.83;100.00;100655.94;5014646;28;20287;-76
2023/05/09 04:31:05;;;;;;;0.20;0.20;;;;;;;7.85;100.00;100651.81;5013140;28;20671;-76
2023/05/09 04:33:30;;;;;;;0.00;0.00;;;;;;;7.76;100.00;100648.91;5014501;28;20601;-76
2023/05/09 04:35:56;;;;;;;0.00;0.00;;;;;;;7.79;100.00;100644.78;5013914;28;20197;-76
2023/05/09 04:38:22;;;;;;;0.00;0.00;;;;;;;7.71;100.00;100650.88;5014298;28;20226;-76
2023/05/09 04:40:47;;;;;;;0.13;0.13;;;;;;;7.75;100.00;100657.34;5012999;28;20172;-76
2023/05/09 04:43:13;;;;;;;0.00;0.00;;;;;;;7.78;100.00;100659.50;5014443;28;20671;-76
2023/05/09 04:45:38;;;;;;;0.00;0.00;;;;;;;7.86;100.00;100664.31;5012353;28;20188;-77
2023/05/09 04:48:03;;;;;;;0.10;0.10;;;;;;;7.92;100.00;100655.00;5014218;28;20231;-76
2023/05/09 04:50:29;;;;;;;1.07;1.07;;;;;;;7.97;100.00;100649.53;5014188;28;20646;-76
2023/05/09 04:52:54;;;;;;;0.17;0.17;;;;;;;8.09;100.00;100643.66;5013061;28;20350;-76
2023/05/09 04:55:20;;;;;;;0.00;0.00;;;;;;;8.17;100.00;100653.09;5013502;28;20185;-76
2023/05/09 04:57:45;;;;;;;0.67;0.67;;;;;;;8.31;100.00;100645.84;5014211;28;20310;-77
2023/05/09 05:00:11;;;;;;;0.00;0.00;;;;;;;8.40;100.00;100651.50;5013849;28;20726;-76
2023/05/09 05:02:36;;;;;;;0.00;0.00;;;;;;;8.31;100.00;100643.13;5013801;28;20204;-76
2023/05/09 05:05:02;;;;;;;0.00;0.00;;;;;;;8.39;100.00;100645.25;5029279;28;20581;-77
2023/05/09 05:07:27;;;;;;;0.77;0.77;;;;;;;8.46;100.00;100637.53;5020947;28;20658;-76
2023/05/09 05:09:52;;;;;;;0.00;0.00;;;;;;;8.53;100.00;100639.88;5020321;28;20215;-76
2023/05/09 05:12:18;;;;;;;0.00;0.00;;;;;;;8.67;100.00;100646.22;5016974;28;20250;-76
2023/05/09 05:14:43;;;;;;;0.00;0.00;;;;;;;8.66;100.00;100644.59;5013812;28;20212;-76
2023/05/09 05:17:08;;;;;;;0.00;0.00;;;;;;;8.77;100.00;100645.28;5013301;28;20286;-76
2023/05/09 05:19:33;;;;;;;0.00;0.00;;;;;;;8.92;100.00;100639.59;5012456;28;20271;-76
2023/05/09 05:21:59;;;;;;;0.00;0.00;;;;;;;9.10;100.00;100635.22;5014074;28;20208;-77
2023/05/09 05:24:24;;;;;;;0.13;0.13;;;;;;;9.19;100.00;100641.63;5012485;28;20219;-76
2023/05/09 05:26:49;;;;;;;0.73;0.67;;;;;;;9.29;100.00;100635.22;5012258;28;20678;-76
2023/05/09 05:29:16;;;;;;;0.77;0.77;;;;;;;9.38;100.00;100645.13;5012727;28;20183;-76
2023/05/09 05:31:41;;;;;;;0.77;0.77;;;;;;;9.49;100.00;100651.22;5013907;28;20196;-77
2023/05/09 05:34:07;;;;;;;0.00;0.00;;;;;;;9.67;100.00;100641.38;5013047;28;20294;-76
2023/05/09 05:36:32;;;;;;;4.23;3.40;;;;;;;9.74;100.00;100639.88;5012902;28;20212;-76
2023/05/09 05:38:57;;;;;;;0.10;0.10;;;;;;;9.77;100.00;100627.53;5013357;28;20199;-76
2023/05/09 05:41:22;;;;;;;1.03;0.83;;;;;;;9.79;100.00;100638.97;5013177;28;20199;-77
2023/05/09 05:43:48;;;;;;;0.20;0.20;;;;;;;10.00;100.00;100637.47;5012034;28;20670;-76
2023/05/09 05:46:13;;;;;;;0.53;0.53;;;;;;;10.06;100.00;100639.00;5013388;28;20184;-80
2023/05/09 05:48:38;;;;;;;0.20;0.20;;;;;;;10.21;100.00;100628.88;5014385;28;20180;-77
2023/05/09 05:51:04;;;;;;;1.00;1.00;;;;;;;10.26;100.00;100624.13;5008282;28;20205;-77
2023/05/09 05:53:29;;;;;;;2.03;1.83;;;;;;;10.46;99.37;100619.38;5003298;28;20188;-78
2023/05/09 05:55:55;;;;;;;0.07;0.07;;;;;;;10.57;98.33;100626.25;5011673;28;20208;-78
2023/05/09 05:58:20;;;;;;;0.47;0.47;;;;;;;10.63;97.20;100620.34;5010722;28;20188;-78
2023/05/09 06:00:45;;;;;;;0.30;0.30;;;;;;;10.82;96.50;100612.00;5011838;28;20212;-78
2023/05/09 06:03:13;;;;;;;0.20;0.20;;;;;;;10.89;96.04;100611.59;5013495;28;20176;-77
2023/05/09 06:05:42;;;;;;;0.87;0.87;;;;;;;10.93;94.10;100609.84;5012470;28;20192;-78
2023/05/09 06:08:07;;;;;;;0.63;0.63;;;;;;;11.13;94.46;100606.59;5005263;28;20188;-78
2023/05/09 06:10:32;;;;;;;0.00;0.00;;;;;;;11.25;95.37;100601.38;5014002;28;20741;-76
2023/05/09 06:12:58;;;;;;;0.17;0.17;;;;;;;11.27;94.27;100612.00;5013006;28;20196;-76
2023/05/09 06:15:23;;;;;;;0.43;0.13;;;;;;;11.42;94.77;100613.53;5012030;28;20682;-76
2023/05/09 06:17:48;;;;;;;0.23;0.23;;;;;;;11.56;94.71;100617.00;5011285;28;20215;-76
2023/05/09 06:20:14;;;;;;;0.10;0.10;;;;;;;11.82;94.48;100607.03;5012535;28;20188;-76
2023/05/09 06:22:39;;;;;;;1.57;1.47;;;;;;;11.89;92.89;100609.34;5012384;28;20207;-77
2023/05/09 06:25:05;;;;;;;0.20;0.20;;;;;;;12.06;91.93;100611.31;5008206;28;20180;-76
2023/05/09 06:27:30;;;;;;;0.50;0.50;;;;;;;12.22;91.44;100601.53;5008848;28;20197;-76
2023/05/09 06:29:55;;;;;;;1.03;1.00;;;;;;;12.22;88.97;100593.31;5011330;28;20175;-76
2023/05/09 06:32:21;;;;;;;5.00;2.80;;;;;;;12.49;89.05;100595.78;5001521;28;20701;-76
2023/05/09 06:34:47;;;;;;;0.57;0.50;;;;;;;12.85;89.05;100594.69;5010145;28;20230;-76
2023/05/09 06:37:12;;;;;;;0.00;0.00;;;;;;;12.92;87.07;100584.03;5010686;28;20192;-76
2023/05/09 06:39:37;;;;;;;0.20;0.20;;;;;;;13.24;85.67;100588.22;5012309;28;20259;-76
2023/05/09 06:42:03;;;;;;;1.50;1.40;;;;;;;13.43;83.99;100576.88;5012256;28;20196;-77
2023/05/09 06:44:28;;;;;;;9.23;1.80;;;;;;;13.60;82.04;100568.63;5012299;28;20215;-76
2023/05/09 06:46:54;;;;;;;0.20;0.10;;;;;;;13.78;80.57;100566.59;5009449;28;20181;-77
2023/05/09 06:49:19;;;;;;;0.40;0.13;;;;;;;13.91;80.88;100565.56;5012098;28;20267;-76
2023/05/09 06:51:44;;;;;;;0.33;0.33;;;;;;;14.08;79.26;100550.94;4999803;28;20212;-77
2023/05/09 06:54:10;;;;;;;0.77;0.47;;;;;;;14.28;77.95;100543.84;4992012;28;20188;-77
2023/05/09 06:56:35;;;;;;;0.13;0.13;;;;;;;14.49;77.06;100546.66;4994183;28;20244;-77
2023/05/09 06:59:00;;;;;;;0.50;0.50;;;;;;;14.69;75.88;100537.59;5005920;28;20188;-77
2023/05/09 07:01:26;;;;;;;0.00;0.00;;;;;;;14.86;73.55;100526.41;5001475;28;20224;-77
2023/05/09 07:03:51;;;;;;;0.57;0.57;;;;;;;15.08;71.32;100517.00;5011744;28;20231;-77
2023/05/09 07:06:16;;;;;;;0.30;0.30;;;;;;;15.20;69.08;100505.22;5011323;28;20176;-77
2023/05/09 07:08:42;;;;;;;0.60;0.40;;;;;;;15.35;68.11;100498.25;5011332;28;20176;-77
2023/05/09 07:11:07;;;;;;;0.10;0.10;;;;;;;15.39;68.79;100502.72;5011624;28;20208;-76
2023/05/09 07:13:32;;;;;;;0.10;0.10;;;;;;;15.28;66.18;100486.97;4999599;28;20177;-77
2023/05/09 07:15:57;;;;;;;0.00;0.00;;;;;;;15.37;67.45;100491.25;4997013;28;20200;-77
2023/05/09 07:18:23;;;;;;;1.03;0.73;;;;;;;15.52;66.19;100477.94;5010252;28;20180;-77
2023/05/09 07:20:48;;;;;;;0.10;0.10;;;;;;;15.59;67.25;100489.19;5011814;28;20256;-77
2023/05/09 07:23:13;;;;;;;0.30;0.30;;;;;;;15.65;65.92;100474.09;5011463;28;20600;-76
2023/05/09 07:25:39;;;;;;;4.93;0.43;;;;;;;15.71;65.87;100478.19;5011007;28;20176;-77
2023/05/09 07:28:04;;;;;;;0.00;0.00;;;;;;;15.78;65.95;100472.94;5011455;28;20259;-77
2023/05/09 07:30:29;;;;;;;8.00;1.20;;;;;;;15.89;65.93;100474.03;5011351;28;20207;-77
2023/05/09 07:32:55;;;;;;;0.00;0.00;;;;;;;15.96;65.87;100477.03;5011151;28;20200;-77
2023/05/09 07:35:20;;;;;;;0.20;0.10;;;;;;;16.09;65.34;100468.75;5010730;28;20579;-77
2023/05/09 07:37:46;;;;;;;0.30;0.30;;;;;;;16.21;64.74;100460.47;5011110;28;20275;-77
2023/05/09 07:40:12;;;;;;;1.40;1.07;;;;;;;16.21;64.63;100463.22;5010855;28;20718;-77
2023/05/09 07:42:37;;;;;;;0.77;0.37;;;;;;;16.32;65.07;100459.59;5009756;28;20204;-77
2023/05/09 07:45:04;;;;;;;0.03;0.03;;;;;;;16.36;63.29;100445.94;5011044;28;20635;-77
2023/05/09 07:47:31;;;;;;;0.80;0.80;;;;;;;16.49;63.28;100449.44;5010982;28;20247;-77
2023/05/09 07:49:56;;;;;;;0.53;0.53;;;;;;;16.47;62.60;100433.22;5011157;28;20176;-77
2023/05/09 07:52:21;;;;;;;0.60;0.37;;;;;;;16.58;63.51;100448.13;5010949;28;20222;-77
2023/05/09 07:54:47;;;;;;;0.27;0.20;;;;;;;16.71;64.22;100443.41;5011148;28;20287;-76
2023/05/09 07:57:12;;;;;;;0.87;0.87;;;;;;;16.78;62.68;100437.25;5010966;28;20238;-77
2023/05/09 07:59:38;;;;;;;1.33;1.33;;;;;;;16.86;62.63;100428.03;5013502;28;20252;-80
2023/05/09 08:02:03;;;;;;;0.73;0.73;;;;;;;16.92;63.10;100430.19;5014127;28;20200;-78
2023/05/09 08:04:28;;;;;;;0.00;0.00;;;;;;;16.97;61.77;100426.34;5012985;28;20650;-78
2023/05/09 08:06:54;;;;;;;0.10;0.10;;;;;;;17.00;61.21;100411.81;4998280;28;20176;-77
2023/05/09 08:09:20;;;;;;;1.80;0.87;;;;;;;17.08;61.84;100405.34;5012585;28;20268;-77
2023/05/09 08:11:45;;;;;;;0.53;0.53;;;;;;;17.14;61.49;100408.63;5014225;28;20247;-77
2023/05/09 08:14:11;;;;;;;0.50;0.43;;;;;;;17.24;62.02;100414.44;5014181;28;20219;-77
2023/05/09 08:16:36;;;;;;;0.20;0.20;;;;;;;17.37;61.76;100411.56;5016601;28;20200;-77
2023/05/09 08:19:01;;;;;;;0.20;0.20;;;;;;;17.44;62.28;100417.25;5013477;28;20180;-78
2023/05/09 08:21:27;;;;;;;0.30;0.30;;;;;;;17.53;62.20;100413.16;5009267;28;20576;-76
2023/05/09 08:23:52;;;;;;;0.40;0.40;;;;;;;17.66;62.96;100419.38;5011693;28;20199;-76
2023/05/09 08:26:18;;;;;;;0.67;0.67;;;;;;;17.76;61.91;100402.25;5003244;28;20219;-78
2023/05/09 08:28:43;;;;;;;0.40;0.40;;;;;;;17.79;60.78;100392.41;5001793;28;20223;-79
2023/05/09 08:31:08;;;;;;;0.93;0.93;;;;;;;17.90;61.07;100393.47;5010516;28;20209;-78
2023/05/09 08:33:34;;;;;;;1.57;0.67;;;;;;;17.97;61.53;100395.59;5015714;28;20181;-80
2023/05/09 08:35:59;;;;;;;0.83;0.83;;;;;;;18.01;60.66;100388.16;5012516;28;20196;-78
2023/05/09 08:38:24;;;;;;;1.20;1.10;;;;;;;18.05;60.84;100383.50;5012626;28;20562;-80
2023/05/09 08:40:50;;;;;;;0.30;0.30;;;;;;;18.02;60.93;100385.03;5012589;28;20287;-79
2023/05/09 08:43:18;;;;;;;0.00;0.00;;;;;;;18.05;60.16;100364.94;5012342;28;20263;-79
2023/05/09 08:46:10;;;;;;;0.50;0.50;;;;;;;18.23;61.53;100378.38;5011166;28;20256;-79
2023/05/09 08:48:38;;;;;;;0.73;0.63;;;;;;;18.35;60.60;100369.88;4994300;28;20197;-79
2023/05/09 08:51:05;;;;;;;0.33;0.20;;;;;;;18.50;57.79;100349.63;5007086;28;20201;-79
2023/05/09 08:53:31;;;;;;;0.90;0.90;;;;;;;18.56;57.50;100356.47;5007904;28;20184;-76
2023/05/09 08:55:59;;;;;;;0.30;0.30;;;;;;;18.64;56.76;100349.13;5009823;28;20220;-76
2023/05/09 08:58:24;;;;;;;0.83;0.83;;;;;;;18.79;56.55;100353.72;5011670;28;20186;-79
2023/05/09 09:00:49;;;;;;;0.23;0.23;;;;;;;18.85;56.05;100346.75;5012632;28;20251;-76
2023/05/09 09:03:16;;;;;;;0.40;0.40;;;;;;;18.92;56.18;100338.53;5011806;28;20212;-79
2023/05/09 09:05:42;;;;;;;0.50;0.50;;;;;;;19.00;54.58;100328.38;5011803;28;20184;-79
2023/05/09 09:08:09;;;;;;;2.50;0.80;;;;;;;19.09;54.33;100326.16;5012305;28;20176;-78
2023/05/09 09:10:41;;;;;;;0.70;0.70;;;;;;;19.05;53.77;100307.88;5015018;28;20177;-79
2023/05/09 09:13:08;;;;;;;0.43;0.43;;;;;;;19.07;54.99;100327.69;5015114;28;20651;-79
2023/05/09 09:15:35;;;;;;;4.33;0.63;;;;;;;19.15;54.39;100319.13;5014558;28;20258;-76
2023/05/09 09:18:09;;;;;;;0.50;0.50;;;;;;;19.31;55.21;100327.28;5028955;28;20300;-76
2023/05/09 09:20:45;;;;;;;0.20;0.10;;;;;;;19.38;53.80;100313.50;5029053;28;20548;-76
2023/05/09 09:23:16;;;;;;;0.20;0.20;;;;;;;19.53;54.35;100320.88;5013756;28;20679;-76
2023/05/09 09:25:45;;;;;;;0.23;0.23;;;;;;;19.57;57.72;100338.38;5013171;28;20182;-76
2023/05/09 09:28:10;;;;;;;0.10;0.10;;;;;;;19.47;53.35;100304.94;5013544;28;20175;-76
2023/05/09 09:30:46;;;;;;;0.00;0.00;;;;;;;19.61;52.75;100300.41;5013510;28;20192;-78
2023/05/09 09:33:18;;;;;;;0.50;0.50;;;;;;;19.76;52.56;100306.94;5013502;28;20211;-76
2023/05/09 09:35:44;;;;;;;0.20;0.20;;;;;;;19.83;52.29;100298.72;5012990;28;20182;-77
2023/05/09 09:38:09;;;;;;;0.10;0.10;;;;;;;20.04;53.24;100300.16;5013531;28;20540;-76
2023/05/09 09:40:38;;;;;;;0.40;0.40;;;;;;;20.15;53.30;100289.97;5011939;28;20181;-77
2023/05/09 09:43:06;;;;;;;0.30;0.30;;;;;;;20.14;50.87;100267.00;5013320;28;20210;-77
2023/05/09 09:45:31;;;;;;;1.20;1.10;;;;;;;20.14;51.49;100267.00;5012729;28;20272;-77
2023/05/09 09:47:57;;;;;;;0.30;0.30;;;;;;;20.25;52.02;100272.63;5013345;28;20503;-76
2023/05/09 09:50:23;;;;;;;0.13;0.13;;;;;;;20.33;50.10;100252.09;5013097;28;20190;-77
2023/05/09 09:52:54;;;;;;;0.10;0.10;;;;;;;20.40;49.86;100251.41;5011800;28;20219;-77
2023/05/09 09:55:21;;;;;;;0.43;0.43;;;;;;;20.31;50.58;100250.91;5012499;28;20211;-76
2023/05/09 09:57:47;;;;;;;0.67;0.67;;;;;;;20.41;49.74;100253.81;5011801;28;20212;-76
2023/05/09 10:00:14;;;;;;;1.37;1.27;;;;;;;20.40;49.62;100237.53;5013132;28;20231;-76
2023/05/09 10:02:54;;;;;;;0.73;0.73;;;;;;;20.49;50.67;100247.13;5012907;28;20204;-76
2023/05/09 10:05:24;;;;;;;0.50;0.50;;;;;;;20.39;49.16;100216.47;5012327;28;20181;-77
2023/05/09 10:08:00;;;;;;;0.83;0.83;;;;;;;20.23;50.42;100238.91;5013003;28;20255;-76
2023/05/09 10:10:31;;;;;;;0.10;0.10;;;;;;;20.33;50.51;100235.47;5012859;28;20176;-77
2023/05/09 10:12:59;;;;;;;1.20;1.10;;;;;;;20.56;49.38;100229.75;5012607;28;20254;-77
2023/05/09 10:15:27;;;;;;;0.00;0.00;;;;;;;20.62;49.47;100213.53;5012238;28;20183;-76
2023/05/09 10:17:57;;;;;;;0.00;0.00;;;;;;;20.82;50.36;100223.19;5012577;28;20609;-76
2023/05/09 10:20:23;;;;;;;0.70;0.67;;;;;;;20.89;49.93;100214.13;5012500;28;20181;-77
2023/05/09 10:22:52;;;;;;;0.20;0.20;;;;;;;21.08;49.88;100211.06;5027747;28;20238;-76
2023/05/09 10:25:20;;;;;;;0.60;0.47;;;;;;;21.14;46.68;100184.50;5020871;28;20166;-76
2023/05/09 10:27:47;;;;;;;0.60;0.40;;;;;;;21.06;46.74;100186.44;5031591;28;20175;-76
2023/05/09 10:30:26;;;;;;;0.83;0.83;;;;;;;21.15;47.38;100183.31;5012572;28;20189;-76
2023/05/09 10:32:52;;;;;;;0.37;0.37;;;;;;;21.21;48.40;100200.41;5012402;28;20222;-76
2023/05/09 10:35:21;;;;;;;0.53;0.53;;;;;;;21.12;47.33;100180.50;5011876;28;20239;-76
2023/05/09 10:37:47;;;;;;;0.10;0.10;;;;;;;21.13;45.82;100166.25;5012524;28;20243;-77
2023/05/09 10:40:14;;;;;;;0.13;0.13;;;;;;;21.23;46.53;100162.69;5012263;28;20236;-77
2023/05/09 10:42:43;;;;;;;0.30;0.23;;;;;;;21.36;48.08;100175.09;5012050;28;20206;-77
2023/05/09 10:45:11;;;;;;;1.00;1.00;;;;;;;21.36;47.72;100174.31;5011282;28;20177;-77
2023/05/09 10:47:37;;;;;;;0.23;0.23;;;;;;;21.42;47.68;100166.41;5009412;28;20747;-77
2023/05/09 10:50:03;;;;;;;0.53;0.53;;;;;;;21.58;49.08;100181.53;4998626;28;20255;-77
2023/05/09 10:52:32;;;;;;;0.30;0.20;;;;;;;21.57;49.55;100168.84;5011659;28;20353;-77
2023/05/09 10:55:00;;;;;;;0.50;0.50;;;;;;;21.06;48.46;100139.22;5011621;28;20185;-79
2023/05/09 10:57:28;;;;;;;0.17;0.17;;;;;;;21.48;50.69;100162.03;5010396;28;20219;-76
2023/05/09 10:59:54;;;;;;;0.37;0.20;;;;;;;21.64;50.46;100162.50;5011757;28;20658;-77
2023/05/09 11:02:20;;;;;;;0.00;0.00;;;;;;;21.84;50.45;100151.78;5026331;28;20204;-77
2023/05/09 11:04:45;;;;;;;0.23;0.23;;;;;;;22.04;49.49;100143.88;5007318;28;20203;-77
2023/05/09 11:07:26;;;;;;;1.13;0.17;;;;;;;21.97;48.90;100142.66;5007493;28;20180;-77
2023/05/09 11:10:06;;;;;;;0.60;0.60;;;;;;;21.97;49.37;100142.66;5011671;28;20180;-76
2023/05/09 11:12:31;;;;;;;0.97;0.97;;;;;;;21.90;48.33;100125.19;5026602;28;20304;-77
2023/05/09 11:15:05;;;;;;;0.50;0.50;;;;;;;21.76;48.92;100123.19;5011198;28;20262;-76
2023/05/09 11:17:33;;;;;;;1.03;1.00;;;;;;;21.95;47.08;100110.88;5011515;28;20200;-77
2023/05/09 11:20:08;;;;;;;1.03;1.03;;;;;;;21.89;45.27;100093.00;5011678;28;20183;-77
2023/05/09 11:22:38;;;;;;;1.53;1.43;;;;;;;22.03;48.09;100112.47;5011248;28;20299;-77
2023/05/09 11:25:06;;;;;;;0.00;0.00;;;;;;;22.06;46.47;100089.47;5011141;28;20275;-77
2023/05/09 11:27:44;;;;;;;1.03;1.03;;;;;;;21.85;47.34;100100.56;5011272;28;20203;-77